Time;durP1;ratioP1;P1;durP2;ratioP2;P2;SDS_P1;SDS_P2;PMS_P1;PMS_P2;Temp;Humidity;BMP_temperature;BMP_pressure;BME280_temperature;BME280_humidity;BME280_pressure;Samples;Min_cycle;Max_cycle;Signal;HPM_P1;HPM_P2
2023/09/11 00:02:16;;;;;;;1999.90;999.90;;;19.10;99.90;;;;;;5053389;28;20436;-74
2023/09/11 00:04:43;;;;;;;1999.90;999.90;;;19.20;99.90;;;;;;5049108;28;20456;-73
2023/09/11 00:07:09;;;;;;;1999.90;999.90;;;19.00;99.90;;;;;;5047742;28;20425;-74
2023/09/11 00:09:36;;;;;;;1999.90;999.90;;;19.10;99.90;;;;;;5050289;28;20433;-75
2023/09/11 00:12:05;;;;;;;1999.90;999.90;;;19.10;99.90;;;;;;5050848;28;20433;-73
2023/09/11 00:14:32;;;;;;;1999.90;999.90;;;19.10;99.90;;;;;;5043469;28;20437;-75
2023/09/11 00:16:59;;;;;;;1999.90;999.90;;;19.10;99.90;;;;;;5049032;28;20448;-73
2023/09/11 00:19:25;;;;;;;1999.90;999.90;;;18.90;99.90;;;;;;5045333;28;20943;-74
2023/09/11 00:21:52;;;;;;;1999.90;999.90;;;18.70;99.90;;;;;;5038745;28;20440;-75
2023/09/11 00:24:19;;;;;;;1999.90;999.90;;;18.60;99.90;;;;;;5042935;28;20433;-74
2023/09/11 00:26:45;;;;;;;1999.90;999.90;;;18.60;99.90;;;;;;5051486;28;20439;-75
2023/09/11 00:29:14;;;;;;;1999.90;999.90;;;18.70;99.90;;;;;;5056856;28;20433;-74
2023/09/11 00:31:40;;;;;;;1999.90;999.90;;;18.70;99.90;;;;;;5048711;28;20923;-75
2023/09/11 00:34:07;;;;;;;1999.90;999.90;;;18.70;99.90;;;;;;5055576;28;20461;-72
2023/09/11 00:36:34;;;;;;;1999.90;999.90;;;18.40;99.90;;;;;;5046224;28;20435;-74
2023/09/11 00:39:00;;;;;;;1999.90;999.90;;;18.40;99.90;;;;;;5046817;28;20429;-75
2023/09/11 00:41:27;;;;;;;1999.90;999.90;;;18.30;99.90;;;;;;5052559;28;20429;-72
2023/09/11 00:43:54;;;;;;;1999.90;999.90;;;18.20;99.90;;;;;;5083177;22;20440;-73
2023/09/11 00:46:22;;;;;;;1999.90;999.90;;;18.30;99.90;;;;;;5088464;28;20422;-72
2023/09/11 00:48:54;;;;;;;1999.90;999.90;;;18.30;99.90;;;;;;5087762;28;20426;-72
2023/09/11 00:51:21;;;;;;;1999.90;999.90;;;18.30;99.90;;;;;;5087315;28;20436;-72
2023/09/11 00:53:49;;;;;;;1999.90;999.90;;;18.30;99.90;;;;;;5077187;28;20424;-72
2023/09/11 00:56:16;;;;;;;1999.90;999.90;;;18.90;99.90;;;;;;5067987;28;20431;-73
2023/09/11 00:58:44;;;;;;;1999.90;999.90;;;18.40;99.90;;;;;;5068546;28;20797;-72
2023/09/11 01:01:12;;;;;;;1999.90;999.90;;;18.40;99.90;;;;;;5067095;28;20437;-72
2023/09/11 01:03:40;;;;;;;1999.90;999.90;;;18.40;99.90;;;;;;5067405;28;20431;-71
2023/09/11 01:06:08;;;;;;;1999.90;999.90;;;18.10;99.90;;;;;;5066772;28;20424;-73
2023/09/11 01:08:34;;;;;;;1999.90;999.90;;;18.10;99.90;;;;;;5068736;28;20477;-73
2023/09/11 01:11:02;;;;;;;1999.90;999.90;;;18.20;99.90;;;;;;5067353;28;20809;-71
2023/09/11 01:13:28;;;;;;;1999.90;999.90;;;18.20;99.90;;;;;;5071997;28;20500;-72
2023/09/11 01:16:02;;;;;;;1999.90;999.90;;;18.20;99.90;;;;;;5070510;28;20935;-73
2023/09/11 01:18:32;;;;;;;1999.90;999.90;;;18.40;99.90;;;;;;5071504;28;20797;-73
2023/09/11 01:21:27;;;;;;;1999.90;999.90;;;18.40;99.90;;;;;;5070239;28;20918;-73
2023/09/11 01:24:07;;;;;;;1999.90;999.90;;;18.50;99.90;;;;;;5068961;28;20431;-73
2023/09/11 01:26:59;;;;;;;1999.90;999.90;;;18.60;99.90;;;;;;5069901;28;20473;-73
2023/09/11 01:29:28;;;;;;;1999.90;999.90;;;18.50;99.90;;;;;;5070546;28;20420;-72
2023/09/11 01:31:55;;;;;;;1999.90;999.90;;;18.50;99.90;;;;;;5062858;28;20961;-73
2023/09/11 01:34:22;;;;;;;1999.90;999.90;;;18.50;99.90;;;;;;5071185;28;20446;-72
2023/09/11 01:36:49;;;;;;;1999.90;999.90;;;18.60;99.90;;;;;;5071000;28;20431;-72
2023/09/11 01:39:16;;;;;;;1999.90;999.90;;;18.60;99.90;;;;;;5070757;28;20436;-72
2023/09/11 01:41:46;;;;;;;1999.90;999.90;;;18.60;99.90;;;;;;5070848;28;20427;-73
2023/09/11 01:44:18;;;;;;;1999.90;999.90;;;18.50;99.90;;;;;;5069984;28;20428;-73
2023/09/11 01:46:48;;;;;;;1999.90;999.90;;;18.50;99.90;;;;;;5070471;28;20435;-73
2023/09/11 01:49:17;;;;;;;1999.90;999.90;;;18.50;99.90;;;;;;5066986;28;20431;-73
2023/09/11 01:51:44;;;;;;;1999.90;999.90;;;18.50;99.90;;;;;;5070519;28;20427;-72
2023/09/11 01:54:12;;;;;;;1999.90;999.90;;;18.60;99.90;;;;;;5071402;28;20434;-73
2023/09/11 01:56:39;;;;;;;1999.90;999.90;;;18.60;99.90;;;;;;5068096;28;20909;-73
2023/09/11 01:59:05;;;;;;;1999.90;999.90;;;18.60;99.90;;;;;;5070968;28;20960;-73
2023/09/11 02:01:32;;;;;;;1999.90;999.90;;;18.50;99.90;;;;;;5070449;28;20809;-73
2023/09/11 02:04:00;;;;;;;1999.90;999.90;;;18.50;99.90;;;;;;5070948;28;20913;-74
2023/09/11 02:06:27;;;;;;;1999.90;999.90;;;18.40;99.90;;;;;;5069503;28;20431;-73
2023/09/11 02:08:55;;;;;;;1999.90;999.90;;;18.50;99.90;;;;;;5069622;28;20462;-73
2023/09/11 02:11:22;;;;;;;1999.90;999.90;;;18.50;99.90;;;;;;5070249;28;20775;-73
2023/09/11 02:13:48;;;;;;;1999.90;999.90;;;18.50;99.90;;;;;;5068652;28;20442;-73
2023/09/11 02:16:15;;;;;;;1999.90;999.90;;;18.40;99.90;;;;;;5069876;28;20434;-72
2023/09/11 02:18:42;;;;;;;1999.90;999.90;;;18.20;99.90;;;;;;5070711;28;20458;-73
2023/09/11 02:21:10;;;;;;;1999.90;999.90;;;18.20;99.90;;;;;;5069466;28;20932;-72
2023/09/11 02:23:37;;;;;;;1999.90;999.90;;;18.10;99.90;;;;;;5068892;28;20423;-71
2023/09/11 02:26:03;;;;;;;1999.90;999.90;;;18.10;99.90;;;;;;5070198;28;20440;-73
2023/09/11 02:28:31;;;;;;;1999.90;999.90;;;18.30;99.90;;;;;;5070095;28;20446;-73
2023/09/11 02:30:58;;;;;;;1999.90;999.90;;;18.10;99.90;;;;;;5068959;28;20455;-73
2023/09/11 02:33:25;;;;;;;1999.90;999.90;;;18.10;99.90;;;;;;5069515;28;20978;-70
2023/09/11 02:35:55;;;;;;;1999.90;999.90;;;18.10;99.90;;;;;;5068602;28;20438;-71
2023/09/11 02:38:23;;;;;;;1999.90;999.90;;;18.10;99.90;;;;;;5070424;28;20435;-73
2023/09/11 02:40:50;;;;;;;1999.90;999.90;;;18.00;99.90;;;;;;5070097;28;20455;-73
2023/09/11 02:43:16;;;;;;;1999.90;999.90;;;18.00;99.90;;;;;;5068992;28;20936;-72
2023/09/11 02:45:44;;;;;;;1999.90;999.90;;;17.90;99.90;;;;;;5070360;28;20428;-73
2023/09/11 02:48:10;;;;;;;1999.90;999.90;;;17.80;99.90;;;;;;5069971;28;20870;-72
2023/09/11 02:50:39;;;;;;;1999.90;999.90;;;17.90;99.90;;;;;;5067960;28;20438;-73
2023/09/11 02:53:08;;;;;;;1999.90;999.90;;;17.90;99.90;;;;;;5067766;28;20952;-73
2023/09/11 02:55:37;;;;;;;1999.90;999.90;;;17.90;99.90;;;;;;5070054;28;20809;-72
2023/09/11 02:58:04;;;;;;;1999.90;999.90;;;17.90;99.90;;;;;;5069387;28;20423;-73
2023/09/11 03:00:34;;;;;;;1999.90;999.90;;;17.90;99.90;;;;;;5068749;28;20436;-73
2023/09/11 03:03:01;;;;;;;1999.90;999.90;;;17.80;99.90;;;;;;5070288;28;20435;-73
2023/09/11 03:05:28;;;;;;;1999.90;999.90;;;17.70;99.90;;;;;;5068988;28;21002;-72
2023/09/11 03:07:54;;;;;;;1999.90;999.90;;;17.60;99.90;;;;;;5068815;28;20950;-73
2023/09/11 03:10:22;;;;;;;1999.90;999.90;;;17.60;99.90;;;;;;5069236;28;20435;-73
2023/09/11 03:12:50;;;;;;;1999.90;999.90;;;17.40;99.90;;;;;;5069212;28;20465;-72
2023/09/11 03:15:17;;;;;;;1999.90;999.90;;;17.50;99.90;;;;;;5068981;28;20434;-73
2023/09/11 03:17:43;;;;;;;1999.90;999.90;;;17.50;99.90;;;;;;5069220;28;20435;-73
2023/09/11 03:20:11;;;;;;;1999.90;999.90;;;17.30;99.90;;;;;;5067514;28;20933;-72
2023/09/11 03:22:39;;;;;;;1999.90;999.90;;;17.30;99.90;;;;;;5067777;28;20519;-73
2023/09/11 03:25:07;;;;;;;1999.90;999.90;;;17.30;99.90;;;;;;5069712;28;20434;-73
2023/09/11 03:27:33;;;;;;;1999.90;999.90;;;17.20;99.90;;;;;;5068431;28;20427;-73
2023/09/11 03:30:01;;;;;;;1999.90;999.90;;;17.30;99.90;;;;;;5068318;28;20450;-75
2023/09/11 03:32:28;;;;;;;1999.90;999.90;;;17.40;99.90;;;;;;5067337;28;20436;-76
2023/09/11 03:34:55;;;;;;;1999.90;999.90;;;17.20;99.90;;;;;;5068125;28;20428;-74
2023/09/11 03:37:22;;;;;;;1999.90;999.90;;;17.10;99.90;;;;;;5068851;28;20952;-75
2023/09/11 03:39:49;;;;;;;1999.90;999.90;;;17.10;99.90;;;;;;5069045;28;20439;-72
2023/09/11 03:42:15;;;;;;;1999.90;999.90;;;17.10;99.90;;;;;;5063021;28;20431;-72
2023/09/11 03:44:42;;;;;;;1999.90;999.90;;;17.00;99.90;;;;;;5069347;28;20824;-73
2023/09/11 03:47:11;;;;;;;1999.90;999.90;;;17.00;99.90;;;;;;5068711;28;20439;-73
2023/09/11 03:49:38;;;;;;;1999.90;999.90;;;17.00;99.90;;;;;;5068496;28;20428;-73
2023/09/11 03:52:05;;;;;;;1999.90;999.90;;;17.10;99.90;;;;;;5068155;28;20439;-72
2023/09/11 03:54:32;;;;;;;1999.90;999.90;;;17.10;99.90;;;;;;5068635;28;20510;-73
2023/09/11 03:56:58;;;;;;;1999.90;999.90;;;17.10;99.90;;;;;;5068758;28;20436;-73
2023/09/11 03:59:25;;;;;;;1999.90;999.90;;;17.10;99.90;;;;;;5069351;28;20424;-73
2023/09/11 04:01:52;;;;;;;1999.90;999.90;;;17.10;99.90;;;;;;5066491;28;20427;-70
2023/09/11 04:04:20;;;;;;;1999.90;999.90;;;17.10;99.90;;;;;;5066277;28;20792;-71
2023/09/11 04:06:47;;;;;;;1999.90;999.90;;;16.90;99.90;;;;;;5068178;28;20438;-75
2023/09/11 04:09:13;;;;;;;1999.90;999.90;;;16.90;99.90;;;;;;5068622;28;20427;-75
2023/09/11 04:11:40;;;;;;;1999.90;999.90;;;16.90;99.90;;;;;;5067565;28;20435;-75
2023/09/11 04:14:07;;;;;;;1999.90;999.90;;;16.80;99.90;;;;;;5068043;28;20959;-74
2023/09/11 04:16:33;;;;;;;1999.90;999.90;;;16.60;99.90;;;;;;5067149;28;20431;-75
2023/09/11 04:19:00;;;;;;;1999.90;999.90;;;16.50;99.90;;;;;;5068642;28;20435;-75
2023/09/11 04:21:28;;;;;;;1999.90;999.90;;;16.50;99.90;;;;;;5065300;28;20427;-75
2023/09/11 04:23:55;;;;;;;1999.90;999.90;;;16.60;99.90;;;;;;5067804;28;20455;-74
2023/09/11 04:26:22;;;;;;;1999.90;999.90;;;16.50;99.90;;;;;;5068570;28;20446;-75
2023/09/11 04:28:49;;;;;;;1999.90;999.90;;;16.50;99.90;;;;;;5067473;28;20434;-75
2023/09/11 04:31:16;;;;;;;1999.90;999.90;;;16.70;99.90;;;;;;5063663;28;20440;-74
2023/09/11 04:33:42;;;;;;;1999.90;999.90;;;16.80;99.90;;;;;;5066046;28;20467;-75
2023/09/11 04:36:09;;;;;;;1999.90;999.90;;;16.80;99.90;;;;;;5066032;28;21024;-75
2023/09/11 04:38:37;;;;;;;1999.90;999.90;;;16.80;99.90;;;;;;5068203;28;20805;-75
2023/09/11 04:41:04;;;;;;;1999.90;999.90;;;16.80;99.90;;;;;;5068115;28;20431;-75
2023/09/11 04:43:31;;;;;;;1999.90;999.90;;;16.90;99.90;;;;;;5066239;28;20514;-74
2023/09/11 04:45:57;;;;;;;1999.90;999.90;;;16.80;99.90;;;;;;5068043;28;20439;-75
2023/09/11 04:48:24;;;;;;;1999.90;999.90;;;17.00;99.90;;;;;;5071999;28;20434;-75
2023/09/11 04:50:51;;;;;;;1999.90;999.90;;;16.60;99.90;;;;;;5072009;28;20427;-74
2023/09/11 04:53:17;;;;;;;1999.90;999.90;;;16.50;99.90;;;;;;5072287;28;20913;-75
2023/09/11 04:55:47;;;;;;;1999.90;999.90;;;16.50;99.90;;;;;;5071220;28;20442;-75
2023/09/11 04:58:14;;;;;;;1999.90;999.90;;;16.50;99.90;;;;;;5070683;28;20434;-76
2023/09/11 05:00:41;;;;;;;1999.90;999.90;;;16.60;99.90;;;;;;5070491;28;20427;-75
2023/09/11 05:03:08;;;;;;;1999.90;999.90;;;16.60;99.90;;;;;;5070889;28;20438;-74
2023/09/11 05:05:38;;;;;;;1999.90;999.90;;;16.50;99.90;;;;;;5070505;28;20427;-74
2023/09/11 05:08:06;;;;;;;1999.90;999.90;;;16.50;99.90;;;;;;5065251;28;20972;-73
2023/09/11 05:10:33;;;;;;;1999.90;999.90;;;16.30;99.90;;;;;;5072280;28;20451;-74
2023/09/11 05:13:01;;;;;;;1999.90;999.90;;;16.40;99.90;;;;;;5069126;28;20774;-75
2023/09/11 05:15:27;;;;;;;1999.90;999.90;;;16.50;99.90;;;;;;5070811;28;20434;-75
2023/09/11 05:17:55;;;;;;;1999.90;999.90;;;16.70;99.90;;;;;;5072272;28;20431;-74
2023/09/11 05:20:22;;;;;;;1999.90;999.90;;;16.90;99.90;;;;;;5071971;28;20427;-75
2023/09/11 05:22:48;;;;;;;1999.90;999.90;;;17.00;99.90;;;;;;5071651;28;20435;-74
2023/09/11 05:25:15;;;;;;;1999.90;999.90;;;17.10;99.90;;;;;;5071510;28;20419;-74
2023/09/11 05:27:44;;;;;;;1999.90;999.90;;;17.00;99.90;;;;;;5067465;28;20455;-75
2023/09/11 05:30:13;;;;;;;1999.90;999.90;;;17.40;99.90;;;;;;5071622;28;20419;-75
2023/09/11 05:32:40;;;;;;;1999.90;999.90;;;17.20;99.90;;;;;;5069317;28;20841;-74
2023/09/11 05:35:07;;;;;;;1999.90;999.90;;;17.40;99.90;;;;;;5068152;28;20424;-73
2023/09/11 05:37:34;;;;;;;1999.90;999.90;;;17.50;99.90;;;;;;5068508;28;20781;-73
2023/09/11 05:40:02;;;;;;;1999.90;999.90;;;17.60;99.90;;;;;;5066088;28;20565;-73
2023/09/11 05:42:29;;;;;;;1999.90;999.90;;;17.70;99.90;;;;;;5070684;28;20515;-72
2023/09/11 05:44:56;;;;;;;1999.90;999.90;;;18.30;99.90;;;;;;5072503;28;20874;-72
2023/09/11 05:47:24;;;;;;;1999.90;999.90;;;18.20;99.90;;;;;;5072695;28;20788;-73
2023/09/11 05:49:51;;;;;;;1999.90;999.90;;;18.10;99.90;;;;;;5068776;28;20434;-72
2023/09/11 05:52:18;;;;;;;1999.90;999.90;;;18.10;99.90;;;;;;5060691;28;20484;-72
2023/09/11 05:54:45;;;;;;;1999.90;999.90;;;18.10;99.90;;;;;;5069010;28;20901;-72
2023/09/11 05:57:11;;;;;;;1999.90;999.90;;;18.20;99.90;;;;;;5072109;28;20445;-73
2023/09/11 05:59:38;;;;;;;1999.90;999.90;;;18.70;99.90;;;;;;5072360;28;20919;-71
2023/09/11 06:02:05;;;;;;;1999.90;999.90;;;18.60;99.90;;;;;;5062303;28;20420;-73
2023/09/11 06:04:34;;;;;;;1999.90;999.90;;;18.60;99.90;;;;;;5057428;28;20432;-72
2023/09/11 06:07:00;;;;;;;1999.90;999.90;;;18.60;99.90;;;;;;5052456;28;20413;-72
2023/09/11 06:09:27;;;;;;;1999.90;999.90;;;18.70;99.90;;;;;;5052470;28;20744;-73
2023/09/11 06:11:54;;;;;;;1999.90;999.90;;;18.80;99.90;;;;;;5069840;28;20909;-72
2023/09/11 06:14:21;;;;;;;1999.90;999.90;;;19.10;99.90;;;;;;5072073;28;20407;-71
2023/09/11 06:16:47;;;;;;;1999.90;999.90;;;19.30;99.90;;;;;;5062400;28;20437;-71
2023/09/11 06:19:14;;;;;;;1999.90;999.90;;;19.50;99.90;;;;;;5064724;28;20424;-72
2023/09/11 06:21:45;;;;;;;1999.90;999.90;;;19.70;99.90;;;;;;5071825;28;20416;-73
2023/09/11 06:24:12;;;;;;;1999.90;999.90;;;19.80;99.90;;;;;;5076397;28;20427;-73
2023/09/11 06:26:42;;;;;;;1999.90;999.90;;;20.10;99.90;;;;;;5081731;28;20942;-75
2023/09/11 06:29:08;;;;;;;1999.90;999.90;;;20.20;99.90;;;;;;5081045;28;20420;-74
2023/09/11 06:31:35;;;;;;;1999.90;999.90;;;20.40;99.90;;;;;;5077068;28;20428;-74
2023/09/11 06:34:02;;;;;;;1999.90;999.90;;;20.40;99.90;;;;;;5079681;28;20428;-75
2023/09/11 06:36:29;;;;;;;1999.90;999.90;;;20.60;99.90;;;;;;5085846;28;20423;-74
2023/09/11 06:38:57;;;;;;;1999.90;999.90;;;20.70;99.90;;;;;;5073401;28;20439;-74
2023/09/11 06:41:24;;;;;;;1999.90;999.90;;;21.10;99.90;;;;;;5057849;28;20431;-74
2023/09/11 06:43:50;;;;;;;1999.90;999.90;;;21.50;99.90;;;;;;5067563;28;20423;-72
2023/09/11 06:46:17;;;;;;;1999.90;999.90;;;21.80;99.90;;;;;;5062002;28;20440;-72
2023/09/11 06:48:44;;;;;;;1999.90;999.90;;;22.20;99.90;;;;;;5068077;28;20432;-70
2023/09/11 06:51:10;;;;;;;1999.90;999.90;;;22.10;99.90;;;;;;5062526;28;20399;-70
2023/09/11 06:53:37;;;;;;;1999.90;999.90;;;22.60;99.90;;;;;;5071340;28;20419;-71
2023/09/11 06:56:07;;;;;;;1999.90;999.90;;;22.70;99.90;;;;;;5071010;28;20411;-70
2023/09/11 06:58:34;;;;;;;1999.90;999.90;;;22.90;99.90;;;;;;5071207;28;20934;-71
2023/09/11 07:01:02;;;;;;;1999.90;999.90;;;23.20;99.90;;;;;;5061438;28;20435;-72
2023/09/11 07:03:29;;;;;;;1999.90;999.90;;;23.20;99.90;;;;;;5064029;28;20437;-70
2023/09/11 07:05:56;;;;;;;1999.90;999.90;;;23.20;99.90;;;;;;5065788;28;20415;-71
2023/09/11 07:08:23;;;;;;;1999.90;999.90;;;23.50;99.90;;;;;;5068079;28;20493;-70
2023/09/11 07:10:50;;;;;;;1999.90;999.90;;;23.60;99.90;;;;;;5068736;28;20419;-71
2023/09/11 07:13:18;;;;;;;1999.90;999.90;;;23.90;99.90;;;;;;5068136;28;20435;-70
2023/09/11 07:15:54;;;;;;;1999.90;999.90;;;24.30;99.90;;;;;;5068929;28;20431;-71
2023/09/11 07:18:21;;;;;;;1999.90;999.90;;;24.90;99.90;;;;;;5063401;28;20427;-73
2023/09/11 07:20:48;;;;;;;1999.90;999.90;;;25.00;99.90;;;;;;5051399;28;20437;-71
2023/09/11 07:23:14;;;;;;;1999.90;999.90;;;25.10;99.90;;;;;;5061989;28;20434;-71
2023/09/11 07:25:41;;;;;;;1999.90;999.90;;;25.30;99.90;;;;;;5062410;28;20420;-68
2023/09/11 07:28:08;;;;;;;1999.90;999.90;;;25.00;99.90;;;;;;5067924;28;20494;-70
2023/09/11 07:30:38;;;;;;;1999.90;999.90;;;25.20;99.90;;;;;;5068421;28;20427;-71
2023/09/11 07:33:05;;;;;;;1999.90;999.90;;;25.40;99.90;;;;;;5069063;28;20991;-72
2023/09/11 07:35:32;;;;;;;1999.90;999.90;;;25.50;99.90;;;;;;5067043;28;20470;-70
2023/09/11 07:37:58;;;;;;;1999.90;999.90;;;25.60;99.90;;;;;;5068892;28;20912;-71
2023/09/11 07:40:25;;;;;;;1999.90;999.90;;;26.10;99.90;;;;;;5068137;28;20423;-71
2023/09/11 07:42:52;;;;;;;1999.90;999.90;;;26.30;99.90;;;;;;5061734;28;20439;-70
2023/09/11 07:45:19;;;;;;;1999.90;999.90;;;26.70;99.90;;;;;;5062195;28;20428;-71
2023/09/11 07:47:47;;;;;;;1999.90;999.90;;;26.90;99.90;;;;;;5055362;28;20431;-70
2023/09/11 07:50:14;;;;;;;1999.90;999.90;;;26.90;99.90;;;;;;5063485;28;20417;-71
2023/09/11 07:52:41;;;;;;;1999.90;999.90;;;27.10;99.90;;;;;;5062019;28;20440;-70
2023/09/11 07:55:08;;;;;;;1999.90;999.90;;;27.10;99.90;;;;;;5065130;28;20462;-72
2023/09/11 07:57:35;;;;;;;1999.90;999.90;;;27.10;99.90;;;;;;5063966;28;20458;-70
2023/09/11 08:00:04;;;;;;;1999.90;999.90;;;27.20;99.90;;;;;;5060209;28;20427;-70
2023/09/11 08:02:31;;;;;;;1999.90;999.90;;;27.40;99.90;;;;;;5057723;28;20525;-70
2023/09/11 08:04:59;;;;;;;1999.90;999.90;;;27.20;99.90;;;;;;5063283;28;20501;-70
2023/09/11 08:07:26;;;;;;;1999.90;999.90;;;27.10;99.90;;;;;;5068561;28;20435;-70
2023/09/11 08:09:53;;;;;;;1999.90;999.90;;;27.10;99.90;;;;;;5068741;28;20928;-71
2023/09/11 08:12:20;;;;;;;1999.90;999.90;;;27.00;99.90;;;;;;5063622;28;20435;-70
2023/09/11 08:14:47;;;;;;;1999.90;999.90;;;27.20;99.90;;;;;;5059044;28;20413;-72
2023/09/11 08:17:14;;;;;;;1999.90;999.90;;;27.50;99.90;;;;;;5069657;28;20408;-71
2023/09/11 08:19:40;;;;;;;1999.90;999.90;;;27.60;99.90;;;;;;5071043;28;20410;-71
2023/09/11 08:22:08;;;;;;;1999.90;999.90;;;27.90;99.90;;;;;;5073421;28;20428;-70
2023/09/11 08:24:35;;;;;;;1999.90;999.90;;;27.60;99.90;;;;;;5065934;28;20420;-71
2023/09/11 08:27:02;;;;;;;1999.90;999.90;;;27.40;99.90;;;;;;5059325;28;20915;-71
2023/09/11 08:29:28;;;;;;;1999.90;999.90;;;27.70;99.90;;;;;;5069302;28;20885;-70
2023/09/11 08:31:55;;;;;;;1999.90;999.90;;;28.20;99.90;;;;;;5074010;28;20439;-70
2023/09/11 08:34:22;;;;;;;1999.90;999.90;;;28.50;99.90;;;;;;5072982;28;20472;-71
2023/09/11 08:36:49;;;;;;;1999.90;999.90;;;28.90;99.90;;;;;;5075845;28;20438;-71
2023/09/11 08:39:17;;;;;;;1999.90;999.90;;;28.70;99.90;;;;;;5076160;28;20450;-70
2023/09/11 08:41:45;;;;;;;1999.90;999.90;;;28.60;99.90;;;;;;5075003;28;20449;-72
2023/09/11 08:44:12;;;;;;;1999.90;999.90;;;29.00;99.90;;;;;;5075235;28;20435;-71
2023/09/11 08:46:45;;;;;;;1999.90;999.90;;;29.10;99.90;;;;;;5073709;28;20813;-71
2023/09/11 08:49:12;;;;;;;1999.90;999.90;;;29.40;99.90;;;;;;5075394;28;20458;-70
2023/09/11 08:51:50;;;;;;;1999.90;999.90;;;29.80;98.40;;;;;;5074329;28;20427;-69
2023/09/11 08:54:19;;;;;;;1999.90;999.90;;;30.10;98.40;;;;;;5073913;28;20434;-68
2023/09/11 08:56:47;;;;;;;1999.90;999.90;;;30.20;97.30;;;;;;5070748;28;20879;-69
2023/09/11 08:59:18;;;;;;;1999.90;999.90;;;30.30;95.90;;;;;;5064673;28;20431;-69
2023/09/11 09:01:46;;;;;;;1999.90;999.90;;;30.50;95.90;;;;;;5064734;28;20801;-68
2023/09/11 09:04:13;;;;;;;1999.90;999.90;;;30.50;94.30;;;;;;5075592;28;20412;-69
2023/09/11 09:06:40;;;;;;;1999.90;999.90;;;30.70;94.80;;;;;;5065084;28;20442;-69
2023/09/11 09:09:07;;;;;;;1999.90;999.90;;;30.90;94.80;;;;;;5066625;28;20415;-70
2023/09/11 09:11:37;;;;;;;1999.90;999.90;;;31.10;92.80;;;;;;5071883;28;20428;-70
2023/09/11 09:14:07;;;;;;;1999.90;999.90;;;30.80;93.30;;;;;;5075321;28;20435;-69
2023/09/11 09:16:34;;;;;;;1999.90;999.90;;;30.60;93.70;;;;;;5073969;28;20929;-69
2023/09/11 09:19:01;;;;;;;1999.90;999.90;;;30.10;94.30;;;;;;5075421;28;20431;-70
2023/09/11 09:21:28;;;;;;;1999.90;999.90;;;30.10;94.30;;;;;;5069336;28;20427;-69
2023/09/11 09:23:55;;;;;;;1999.90;999.90;;;30.00;95.60;;;;;;5062468;28;20427;-68
2023/09/11 09:26:23;;;;;;;1999.90;999.90;;;30.30;93.30;;;;;;5076015;28;20454;-70
2023/09/11 09:28:54;;;;;;;1999.90;999.90;;;30.50;92.80;;;;;;5076296;28;20411;-68
2023/09/11 09:31:25;;;;;;;1999.90;999.90;;;30.60;92.40;;;;;;5076205;28;20893;-69
2023/09/11 09:33:53;;;;;;;1999.90;999.90;;;30.40;92.70;;;;;;5072721;28;20462;-68
2023/09/11 09:36:20;;;;;;;1999.90;999.90;;;30.80;92.90;;;;;;5063705;28;20436;-68
2023/09/11 09:38:47;;;;;;;1999.90;999.90;;;31.00;91.60;;;;;;5059375;28;20413;-68
2023/09/11 09:41:16;;;;;;;1999.90;999.90;;;30.90;92.30;;;;;;5053417;28;20436;-68
2023/09/11 09:43:54;;;;;;;1999.90;999.90;;;31.00;91.90;;;;;;5053449;28;20500;-69
2023/09/11 09:46:22;;;;;;;1999.90;999.90;;;31.00;92.50;;;;;;5053482;28;20421;-70
2023/09/11 09:48:49;;;;;;;1999.90;999.90;;;30.50;93.00;;;;;;5057816;28;20434;-70
2023/09/11 09:51:16;;;;;;;1999.90;999.90;;;30.60;91.10;;;;;;5063396;28;20425;-69
2023/09/11 09:53:46;;;;;;;1999.90;999.90;;;30.50;91.80;;;;;;5067851;28;20909;-69
2023/09/11 09:56:14;;;;;;;1999.90;999.90;;;30.60;91.90;;;;;;5069282;28;20435;-70
2023/09/11 09:58:42;;;;;;;1999.90;999.90;;;30.80;91.80;;;;;;5071501;28;20436;-71
2023/09/11 10:01:11;;;;;;;1999.90;999.90;;;30.60;92.00;;;;;;5071128;28;20428;-71
2023/09/11 10:03:40;;;;;;;1999.90;999.90;;;30.70;91.00;;;;;;5064036;28;20431;-68
2023/09/11 10:06:08;;;;;;;1999.90;999.90;;;30.70;91.80;;;;;;5071637;28;20526;-70
2023/09/11 10:08:35;;;;;;;1999.90;999.90;;;30.80;91.80;;;;;;5072198;28;20432;-68
2023/09/11 10:11:02;;;;;;;1999.90;999.90;;;31.10;91.30;;;;;;5071916;28;20801;-68
2023/09/11 10:13:32;;;;;;;1999.90;999.90;;;31.00;91.40;;;;;;5071728;28;20443;-69
2023/09/11 10:15:59;;;;;;;1999.90;999.90;;;31.10;91.20;;;;;;5072799;28;20810;-69
2023/09/11 10:18:31;;;;;;;1999.90;999.90;;;31.30;92.00;;;;;;5069886;28;20518;-69
2023/09/11 10:20:59;;;;;;;1999.90;999.90;;;31.40;91.10;;;;;;5070863;28;20431;-69
2023/09/11 10:23:26;;;;;;;1999.90;999.90;;;31.50;90.30;;;;;;5072777;28;20435;-69
2023/09/11 10:25:58;;;;;;;1999.90;999.90;;;31.30;90.60;;;;;;5072011;28;20432;-69
2023/09/11 10:28:31;;;;;;;1999.90;999.90;;;31.40;90.80;;;;;;5071243;28;20428;-69
2023/09/11 10:31:05;;;;;;;1999.90;999.90;;;31.40;90.60;;;;;;5068815;28;20440;-69
2023/09/11 10:33:35;;;;;;;1999.90;999.90;;;31.40;90.20;;;;;;5069265;28;20434;-69
2023/09/11 10:36:08;;;;;;;1999.90;999.90;;;31.20;90.90;;;;;;5070192;28;20909;-69
2023/09/11 10:38:36;;;;;;;1999.90;999.90;;;31.30;91.00;;;;;;5061691;28;20420;-69
2023/09/11 10:41:05;;;;;;;1999.90;999.90;;;31.60;91.00;;;;;;5052622;28;20462;-71
2023/09/11 10:43:31;;;;;;;1999.90;999.90;;;31.70;88.20;;;;;;5069939;28;20432;-68
2023/09/11 10:46:14;;;;;;;1999.90;999.90;;;31.40;89.00;;;;;;5070291;28;20442;-68
2023/09/11 10:48:42;;;;;;;1999.90;999.90;;;31.40;90.40;;;;;;5063798;28;20450;-69
2023/09/11 10:51:09;;;;;;;1999.90;999.90;;;31.50;90.60;;;;;;5060085;28;20421;-68
2023/09/11 10:53:36;;;;;;;1999.90;999.90;;;31.50;90.40;;;;;;5063911;28;20422;-69
2023/09/11 10:56:03;;;;;;;1999.90;999.90;;;31.50;90.70;;;;;;5072740;28;20407;-70
2023/09/11 10:58:30;;;;;;;1999.90;999.90;;;31.40;90.40;;;;;;5072848;28;20840;-71
2023/09/11 11:00:58;;;;;;;1999.90;999.90;;;31.10;90.90;;;;;;5070944;28;20429;-68
2023/09/11 11:03:26;;;;;;;1999.90;999.90;;;31.00;91.70;;;;;;5062733;28;20411;-69
2023/09/11 11:05:55;;;;;;;1999.90;999.90;;;31.20;91.80;;;;;;5053642;28;20472;-67
2023/09/11 11:08:22;;;;;;;1999.90;999.90;;;31.40;90.70;;;;;;5052839;28;20879;-68
2023/09/11 11:10:52;;;;;;;1999.90;999.90;;;31.30;90.70;;;;;;5052731;28;20780;-69
2023/09/11 11:13:19;;;;;;;1999.90;999.90;;;31.40;90.10;;;;;;5054447;28;20431;-70
2023/09/11 11:15:46;;;;;;;1999.90;999.90;;;31.20;90.20;;;;;;5059732;28;20934;-71
2023/09/11 11:18:14;;;;;;;1999.90;999.90;;;31.20;90.20;;;;;;5060511;28;20941;-68
2023/09/11 11:21:06;;;;;;;1999.90;999.90;;;31.30;90.60;;;;;;5052814;28;20779;-70
2023/09/11 11:23:34;;;;;;;1999.90;999.90;;;31.40;90.90;;;;;;5066245;28;20470;-68
2023/09/11 11:26:04;;;;;;;1999.90;999.90;;;31.50;90.30;;;;;;5072830;28;20470;-68
2023/09/11 11:28:40;;;;;;;1999.90;999.90;;;31.60;89.70;;;;;;5070459;28;20451;-68
2023/09/11 11:31:08;;;;;;;1999.90;999.90;;;31.50;88.70;;;;;;5070106;28;20477;-69
2023/09/11 11:33:36;;;;;;;1999.90;999.90;;;31.50;89.80;;;;;;5075654;28;20983;-68
2023/09/11 11:36:06;;;;;;;1999.90;999.90;;;31.60;87.70;;;;;;5077106;28;20461;-68
2023/09/11 11:38:33;;;;;;;1999.90;999.90;;;31.70;88.00;;;;;;5072627;28;20415;-69
2023/09/11 11:41:01;;;;;;;1999.90;999.90;;;31.70;86.70;;;;;;5068745;28;20425;-68
2023/09/11 11:43:28;;;;;;;1999.90;999.90;;;31.70;87.80;;;;;;5072764;28;20432;-71
2023/09/11 11:45:56;;;;;;;1999.90;999.90;;;31.60;88.60;;;;;;5067015;28;20435;-69
2023/09/11 11:48:23;;;;;;;1999.90;999.90;;;31.80;90.00;;;;;;5074218;28;20459;-69
2023/09/11 11:50:50;;;;;;;1999.90;999.90;;;32.00;89.50;;;;;;5074614;28;20526;-68
2023/09/11 11:53:20;;;;;;;1999.90;999.90;;;31.90;89.20;;;;;;5070398;28;20481;-70
2023/09/11 11:55:47;;;;;;;1999.90;999.90;;;32.00;89.60;;;;;;5067980;28;20424;-71
2023/09/11 11:58:16;;;;;;;1999.90;999.90;;;32.10;89.60;;;;;;5067405;28;20434;-69
2023/09/11 12:00:56;;;;;;;1999.90;999.90;;;32.20;89.60;;;;;;5065814;28;20510;-72
2023/09/11 12:03:23;;;;;;;1999.90;999.90;;;32.10;88.50;;;;;;5068562;28;20435;-69